Time;durP1;ratioP1;P1;durP2;ratioP2;P2;SDS_P1;SDS_P2;PMS_P1;PMS_P2;Temp;Humidity;BMP_temperature;BMP_pressure;BME280_temperature;BME280_humidity;BME280_pressure;Samples;Min_cycle;Max_cycle;Signal;HPM_P1;HPM_P2
2021/11/06 00:01:56;;;;;;;3.72;1.25;;;7.90;99.90;;;;;;4422596;32;20082;-68
2021/11/06 00:04:22;;;;;;;0.30;0.30;;;7.90;99.90;;;;;;4415396;32;20116;-68
2021/11/06 00:06:47;;;;;;;1.02;0.70;;;7.80;99.90;;;;;;4417689;32;20405;-68
2021/11/06 00:09:13;;;;;;;0.40;0.40;;;7.90;99.90;;;;;;4416736;32;20058;-68
2021/11/06 00:11:38;;;;;;;8.18;1.45;;;7.90;99.90;;;;;;4423565;32;20210;-67
2021/11/06 00:14:04;;;;;;;0.68;0.68;;;7.90;99.90;;;;;;4414871;32;20062;-69
2021/11/06 00:16:30;;;;;;;0.88;0.65;;;7.80;99.90;;;;;;4415135;32;20094;-68
2021/11/06 00:18:55;;;;;;;0.55;0.55;;;7.80;99.90;;;;;;4428184;32;20066;-68
2021/11/06 00:21:21;;;;;;;0.40;0.40;;;7.90;99.90;;;;;;4428217;32;20090;-69
2021/11/06 00:23:46;;;;;;;0.40;0.40;;;7.90;99.90;;;;;;4426877;32;20124;-68
2021/11/06 00:26:12;;;;;;;7.32;0.55;;;7.90;99.90;;;;;;4412538;32;20116;-68
2021/11/06 00:28:38;;;;;;;0.40;0.40;;;7.90;99.90;;;;;;4417942;32;20074;-69
2021/11/06 00:31:03;;;;;;;0.57;0.57;;;7.90;99.90;;;;;;4408818;27;20074;-75
2021/11/06 00:33:29;;;;;;;0.30;0.30;;;7.80;99.90;;;;;;4403634;32;20331;-75
2021/11/06 00:35:55;;;;;;;2.50;0.85;;;7.80;99.90;;;;;;4407922;32;20073;-74
2021/11/06 00:38:20;;;;;;;0.30;0.30;;;7.80;99.90;;;;;;4416758;32;20061;-75
2021/11/06 00:40:46;;;;;;;0.40;0.40;;;7.80;99.90;;;;;;4404084;32;20552;-74
2021/11/06 00:43:11;;;;;;;0.50;0.47;;;7.90;99.90;;;;;;4403222;32;20061;-74
2021/11/06 00:45:37;;;;;;;0.60;0.60;;;7.90;99.90;;;;;;4405899;32;20082;-74
2021/11/06 00:48:02;;;;;;;1.25;1.15;;;7.90;99.90;;;;;;4410656;32;20075;-75
2021/11/06 00:50:28;;;;;;;1.75;0.95;;;7.90;99.90;;;;;;4406542;32;20520;-75
2021/11/06 00:52:54;;;;;;;0.47;0.47;;;7.90;99.90;;;;;;4424634;27;20111;-65
2021/11/06 00:55:21;;;;;;;0.60;0.60;;;7.90;99.90;;;;;;4389959;32;20518;-65
2021/11/06 00:57:48;;;;;;;0.40;0.40;;;7.90;99.90;;;;;;4406325;32;20061;-66
2021/11/06 01:00:15;;;;;;;1.05;0.95;;;7.90;99.90;;;;;;4406810;32;20503;-64
2021/11/06 01:02:40;;;;;;;0.30;0.30;;;8.00;99.90;;;;;;4407478;32;20054;-65
2021/11/06 01:05:08;;;;;;;0.30;0.30;;;7.90;99.90;;;;;;4403425;32;20067;-65
2021/11/06 01:07:35;;;;;;;0.43;0.43;;;7.90;99.90;;;;;;4391065;32;20409;-65
2021/11/06 01:10:00;;;;;;;0.40;0.40;;;7.90;99.90;;;;;;4385625;32;20117;-65
2021/11/06 01:12:26;;;;;;;0.30;0.30;;;7.90;99.90;;;;;;4404526;32;20074;-65
2021/11/06 01:14:51;;;;;;;5.93;0.65;;;7.90;99.90;;;;;;4409115;32;20093;-66
2021/11/06 01:17:17;;;;;;;0.47;0.47;;;7.90;99.90;;;;;;4403932;32;20061;-66
2021/11/06 01:19:42;;;;;;;0.40;0.40;;;7.90;99.90;;;;;;4405259;32;20057;-65
2021/11/06 01:22:08;;;;;;;37.90;1.23;;;7.90;99.90;;;;;;4401970;32;20077;-65
2021/11/06 01:24:33;;;;;;;0.43;0.40;;;7.90;99.90;;;;;;4402264;32;20129;-65
2021/11/06 01:26:59;;;;;;;0.40;0.40;;;7.90;99.90;;;;;;4387018;32;20201;-65
2021/11/06 01:29:24;;;;;;;0.30;0.30;;;7.90;99.90;;;;;;4406218;32;20061;-64
2021/11/06 01:31:50;;;;;;;0.88;0.88;;;7.90;99.90;;;;;;4402966;32;20058;-65
2021/11/06 01:34:16;;;;;;;2.15;0.88;;;7.90;99.90;;;;;;4400149;32;20106;-65
2021/11/06 01:36:41;;;;;;;0.80;0.80;;;8.00;99.90;;;;;;4406563;32;20077;-65
2021/11/06 01:39:07;;;;;;;0.30;0.30;;;8.00;99.90;;;;;;4402747;32;20089;-65
2021/11/06 01:41:34;;;;;;;0.70;0.70;;;8.00;99.90;;;;;;4399924;32;20165;-65
2021/11/06 01:44:01;;;;;;;0.85;0.85;;;8.10;99.90;;;;;;4391680;32;20120;-65
2021/11/06 01:46:26;;;;;;;1.17;1.00;;;8.10;99.90;;;;;;4390499;32;20137;-65
2021/11/06 01:48:52;;;;;;;0.77;0.77;;;8.10;99.90;;;;;;4400628;32;20137;-65
2021/11/06 01:51:18;;;;;;;0.57;0.57;;;8.10;99.90;;;;;;4389884;32;20079;-65
2021/11/06 01:53:44;;;;;;;2.17;1.05;;;8.10;99.90;;;;;;4392030;32;20480;-65
2021/11/06 01:56:09;;;;;;;0.45;0.45;;;8.10;99.90;;;;;;4399723;32;20058;-65
2021/11/06 01:58:35;;;;;;;2.75;0.90;;;8.10;99.90;;;;;;4397663;32;20061;-66
2021/11/06 02:01:01;;;;;;;0.57;0.55;;;8.00;99.90;;;;;;4390702;32;20440;-65
2021/11/06 02:03:27;;;;;;;2.20;0.50;;;8.10;99.90;;;;;;4404652;32;20078;-65
2021/11/06 02:05:53;;;;;;;0.30;0.30;;;8.10;99.90;;;;;;4395819;32;20380;-65
2021/11/06 02:08:19;;;;;;;0.32;0.32;;;8.10;99.90;;;;;;4401920;32;20062;-65
2021/11/06 02:10:46;;;;;;;1.25;0.88;;;8.10;99.90;;;;;;4388251;32;20122;-65
2021/11/06 02:13:12;;;;;;;0.40;0.40;;;8.10;99.90;;;;;;4391848;32;20425;-66
2021/11/06 02:15:38;;;;;;;0.62;0.62;;;8.10;99.90;;;;;;4376905;32;20128;-65
2021/11/06 02:18:04;;;;;;;6.55;1.00;;;8.10;99.90;;;;;;4409071;32;20073;-65
2021/11/06 02:20:30;;;;;;;1.37;1.02;;;8.00;99.90;;;;;;4404312;32;20078;-64
2021/11/06 02:22:56;;;;;;;0.77;0.77;;;8.00;99.90;;;;;;4376263;32;20069;-65
2021/11/06 02:25:22;;;;;;;3.67;0.85;;;8.00;99.90;;;;;;4403220;32;20078;-65
2021/11/06 02:27:48;;;;;;;1.25;0.73;;;8.00;99.90;;;;;;4407090;32;20082;-65
2021/11/06 02:30:16;;;;;;;0.37;0.37;;;8.00;99.90;;;;;;4387705;32;20090;-66
2021/11/06 02:32:43;;;;;;;5.32;1.92;;;8.00;99.90;;;;;;4397664;32;20114;-65
2021/11/06 02:35:09;;;;;;;6.45;0.90;;;8.10;99.90;;;;;;4403287;32;20117;-65
2021/11/06 02:37:35;;;;;;;0.45;0.45;;;8.10;99.90;;;;;;4406690;32;20462;-65
2021/11/06 02:40:01;;;;;;;0.70;0.70;;;8.10;99.90;;;;;;4388222;32;20116;-65
2021/11/06 02:42:26;;;;;;;0.93;0.85;;;8.10;99.90;;;;;;4401750;32;20078;-66
2021/11/06 02:44:52;;;;;;;0.40;0.40;;;8.10;99.90;;;;;;4403844;32;20065;-66
2021/11/06 02:47:18;;;;;;;0.40;0.40;;;8.10;99.90;;;;;;4394933;32;20086;-65
2021/11/06 02:49:43;;;;;;;0.80;0.77;;;8.10;99.90;;;;;;4404107;32;20433;-65
2021/11/06 02:52:09;;;;;;;0.70;0.70;;;8.10;99.90;;;;;;4401610;32;20082;-65
2021/11/06 02:54:36;;;;;;;0.32;0.32;;;8.20;99.90;;;;;;4404636;32;20137;-66
2021/11/06 02:57:01;;;;;;;0.60;0.60;;;8.20;99.90;;;;;;4405804;32;20081;-66
2021/11/06 02:59:27;;;;;;;1.00;0.77;;;8.20;99.90;;;;;;4407885;32;20082;-66
2021/11/06 03:01:53;;;;;;;0.50;0.50;;;8.30;99.90;;;;;;4388954;32;20105;-65
2021/11/06 03:04:18;;;;;;;5.70;1.12;;;8.20;99.90;;;;;;4404901;32;20721;-65
2021/11/06 03:06:44;;;;;;;0.37;0.37;;;8.20;99.90;;;;;;4407283;32;20066;-65
2021/11/06 03:09:10;;;;;;;2.72;1.50;;;8.30;99.90;;;;;;4396618;32;20151;-65
2021/11/06 03:11:38;;;;;;;0.30;0.30;;;8.20;99.90;;;;;;4406911;32;20515;-65
2021/11/06 03:14:05;;;;;;;1.12;0.45;;;8.30;99.90;;;;;;4397651;32;20077;-65
2021/11/06 03:16:31;;;;;;;0.52;0.52;;;8.20;99.90;;;;;;4403073;32;20132;-65
2021/11/06 03:18:56;;;;;;;2.90;1.05;;;8.20;99.90;;;;;;4400236;32;20073;-65
2021/11/06 03:21:23;;;;;;;2.42;0.93;;;8.20;99.90;;;;;;4390192;32;20131;-64
2021/11/06 03:23:48;;;;;;;0.80;0.77;;;8.30;99.90;;;;;;4387375;32;20105;-64
2021/11/06 03:26:15;;;;;;;4.70;0.95;;;8.30;99.90;;;;;;4407687;32;20073;-65
2021/11/06 03:28:40;;;;;;;1.15;0.93;;;8.30;99.90;;;;;;4427666;32;20126;-67
2021/11/06 03:31:06;;;;;;;1.27;0.52;;;8.30;99.90;;;;;;4420134;32;20170;-65
2021/11/06 03:33:32;;;;;;;0.30;0.30;;;8.30;99.90;;;;;;4402981;32;20085;-65
2021/11/06 03:35:58;;;;;;;1.48;0.77;;;8.30;99.90;;;;;;4409011;32;20535;-64
2021/11/06 03:38:23;;;;;;;0.60;0.60;;;8.30;99.90;;;;;;4423861;32;20070;-65
2021/11/06 03:40:49;;;;;;;1.45;1.08;;;8.30;99.90;;;;;;4398749;32;20428;-65
2021/11/06 03:43:15;;;;;;;0.40;0.40;;;8.30;99.90;;;;;;4399924;32;20078;-65
2021/11/06 03:45:41;;;;;;;2.85;0.88;;;8.30;99.90;;;;;;4424250;32;20093;-65
2021/11/06 03:48:07;;;;;;;1.02;0.93;;;8.40;99.90;;;;;;4409649;32;20073;-65
2021/11/06 03:50:32;;;;;;;2.17;0.70;;;8.40;99.90;;;;;;4429524;32;20132;-64
2021/11/06 03:52:58;;;;;;;2.35;0.77;;;8.40;99.90;;;;;;4429411;32;20073;-65
2021/11/06 03:55:24;;;;;;;0.40;0.40;;;8.40;99.90;;;;;;4430062;32;20062;-65
2021/11/06 03:57:49;;;;;;;0.55;0.45;;;8.40;99.90;;;;;;4416305;32;20514;-65
2021/11/06 04:00:17;;;;;;;0.65;0.65;;;8.40;99.90;;;;;;4407408;32;20070;-66
2021/11/06 04:02:44;;;;;;;0.70;0.70;;;8.50;99.90;;;;;;4419402;32;20065;-65
2021/11/06 04:05:11;;;;;;;0.45;0.45;;;8.50;99.90;;;;;;4406064;32;20117;-65
2021/11/06 04:07:36;;;;;;;4.28;0.50;;;8.50;99.90;;;;;;4403748;32;20061;-65
2021/11/06 04:10:03;;;;;;;1.15;0.52;;;8.50;99.90;;;;;;4417819;32;20065;-66
2021/11/06 04:12:28;;;;;;;1.12;1.02;;;8.50;99.90;;;;;;4408020;32;20069;-65
2021/11/06 04:14:54;;;;;;;3.28;0.85;;;8.50;99.90;;;;;;4424406;32;20120;-66
2021/11/06 04:17:21;;;;;;;7.22;0.80;;;8.50;99.90;;;;;;4401201;32;20082;-65
2021/11/06 04:19:46;;;;;;;1.55;0.62;;;8.50;99.90;;;;;;4413175;32;20065;-66
2021/11/06 04:22:12;;;;;;;0.30;0.30;;;8.60;99.90;;;;;;4420986;32;20315;-65
2021/11/06 04:24:39;;;;;;;1.15;0.52;;;8.50;99.90;;;;;;4422796;32;20085;-65
2021/11/06 04:27:06;;;;;;;0.65;0.65;;;8.60;99.90;;;;;;4406709;32;20518;-65
2021/11/06 04:29:31;;;;;;;1.98;0.62;;;8.50;99.90;;;;;;4421881;32;20090;-65
2021/11/06 04:31:57;;;;;;;0.60;0.60;;;8.60;99.90;;;;;;4417219;32;102153;-65
2021/11/06 04:34:24;;;;;;;0.50;0.50;;;8.60;99.90;;;;;;4424032;32;20518;-65
2021/11/06 04:36:49;;;;;;;0.30;0.30;;;8.60;99.90;;;;;;4419316;32;20054;-66
2021/11/06 04:39:15;;;;;;;0.65;0.65;;;8.60;99.90;;;;;;4423662;32;20065;-66
2021/11/06 04:41:41;;;;;;;0.43;0.43;;;8.60;99.90;;;;;;4423928;32;20112;-66
2021/11/06 04:44:06;;;;;;;0.50;0.50;;;8.60;99.90;;;;;;4402188;32;20131;-65
2021/11/06 04:46:32;;;;;;;0.50;0.50;;;8.60;99.90;;;;;;4419141;32;20109;-65
2021/11/06 04:48:57;;;;;;;0.30;0.30;;;8.60;99.90;;;;;;4418587;32;20074;-66
2021/11/06 04:51:23;;;;;;;0.30;0.30;;;8.60;99.90;;;;;;4420003;32;20116;-65
2021/11/06 04:53:49;;;;;;;0.80;0.77;;;8.60;99.90;;;;;;4423122;32;20518;-65
2021/11/06 04:56:14;;;;;;;0.47;0.47;;;8.60;99.90;;;;;;4421308;32;20089;-65
2021/11/06 04:58:40;;;;;;;0.40;0.40;;;8.60;99.90;;;;;;4419636;32;20065;-65
2021/11/06 05:01:06;;;;;;;0.35;0.35;;;8.60;99.90;;;;;;4404539;32;20086;-66
2021/11/06 05:03:32;;;;;;;0.65;0.40;;;8.60;99.90;;;;;;4408211;32;20057;-65
2021/11/06 05:05:58;;;;;;;0.95;0.47;;;8.60;99.90;;;;;;4409121;32;20074;-66
2021/11/06 05:08:23;;;;;;;0.47;0.47;;;8.60;99.90;;;;;;4423813;32;20082;-65
2021/11/06 05:10:48;;;;;;;0.40;0.40;;;8.70;99.90;;;;;;4418048;32;20089;-65
2021/11/06 05:13:14;;;;;;;5.47;1.33;;;8.70;99.90;;;;;;4420323;32;20547;-65
2021/11/06 05:15:39;;;;;;;0.40;0.40;;;8.70;99.90;;;;;;4419083;32;20065;-65
2021/11/06 05:18:06;;;;;;;0.40;0.40;;;8.70;99.90;;;;;;4418393;32;20097;-65
2021/11/06 05:20:33;;;;;;;1.12;1.02;;;8.70;99.90;;;;;;4409138;32;20102;-66
2021/11/06 05:22:59;;;;;;;0.30;0.30;;;8.70;99.90;;;;;;4419257;32;20084;-64
2021/11/06 05:25:25;;;;;;;0.47;0.47;;;8.70;99.90;;;;;;4424714;32;20117;-65
2021/11/06 05:27:51;;;;;;;0.20;0.20;;;8.70;99.90;;;;;;4419912;32;20397;-65
2021/11/06 05:30:16;;;;;;;1.02;1.02;;;8.70;99.90;;;;;;4418990;32;20078;-65
2021/11/06 05:32:42;;;;;;;2.83;0.45;;;8.70;99.90;;;;;;4420574;32;20566;-65
2021/11/06 05:35:10;;;;;;;0.70;0.70;;;8.70;99.90;;;;;;4402612;32;20077;-65
2021/11/06 05:37:35;;;;;;;0.30;0.30;;;8.70;99.90;;;;;;4420402;32;20094;-65
2021/11/06 05:40:01;;;;;;;0.32;0.32;;;8.60;99.90;;;;;;4412536;32;20507;-65
2021/11/06 05:42:27;;;;;;;0.85;0.82;;;8.70;99.90;;;;;;4411485;32;20492;-65
2021/11/06 05:44:52;;;;;;;0.30;0.30;;;8.70;99.90;;;;;;4427232;32;20068;-66
2021/11/06 05:47:18;;;;;;;0.40;0.40;;;8.70;99.90;;;;;;4412710;32;20069;-65
2021/11/06 05:49:43;;;;;;;2.20;1.00;;;8.70;99.90;;;;;;4418235;32;20459;-64
2021/11/06 05:52:09;;;;;;;0.52;0.52;;;8.70;99.90;;;;;;4420172;32;20123;-66
2021/11/06 05:54:34;;;;;;;1.10;0.70;;;8.60;99.90;;;;;;4412614;32;20117;-65
2021/11/06 05:57:00;;;;;;;0.40;0.40;;;8.60;99.90;;;;;;4420060;32;20086;-64
2021/11/06 05:59:25;;;;;;;0.55;0.55;;;8.60;99.90;;;;;;4420362;32;20586;-65
2021/11/06 06:01:51;;;;;;;0.40;0.40;;;8.60;99.90;;;;;;4418304;32;20106;-65
2021/11/06 06:04:16;;;;;;;0.80;0.80;;;8.60;99.90;;;;;;4418176;32;20066;-65
2021/11/06 06:06:42;;;;;;;0.80;0.55;;;8.60;99.90;;;;;;4406562;32;20526;-64
2021/11/06 06:09:07;;;;;;;0.95;0.60;;;8.60;99.90;;;;;;4417971;32;20089;-65
2021/11/06 06:11:33;;;;;;;0.40;0.40;;;8.70;99.90;;;;;;4423090;32;20549;-66
2021/11/06 06:13:59;;;;;;;5.37;0.95;;;8.60;99.90;;;;;;4417722;32;20066;-65
2021/11/06 06:16:25;;;;;;;0.62;0.45;;;8.60;99.90;;;;;;4404545;32;20073;-66
2021/11/06 06:18:50;;;;;;;1.27;1.12;;;8.70;99.90;;;;;;4419684;32;20115;-65
2021/11/06 06:21:16;;;;;;;1.25;0.73;;;8.60;99.90;;;;;;4419364;32;20077;-65
2021/11/06 06:23:42;;;;;;;2.72;1.00;;;8.70;99.90;;;;;;4414566;32;20077;-65
2021/11/06 06:26:09;;;;;;;0.30;0.30;;;8.70;99.90;;;;;;4419987;32;20081;-65
2021/11/06 06:28:34;;;;;;;0.40;0.40;;;8.70;99.90;;;;;;4415819;32;20077;-65
2021/11/06 06:31:00;;;;;;;0.45;0.45;;;8.70;99.90;;;;;;4419480;32;20123;-65
2021/11/06 06:33:25;;;;;;;0.77;0.77;;;8.70;99.90;;;;;;4405083;32;20117;-65
2021/11/06 06:35:51;;;;;;;0.32;0.32;;;8.70;99.90;;;;;;4420989;32;20108;-64
2021/11/06 06:38:16;;;;;;;0.80;0.70;;;8.70;99.90;;;;;;4406746;32;20089;-65
2021/11/06 06:40:42;;;;;;;0.30;0.30;;;8.70;99.90;;;;;;4420445;32;20073;-64
2021/11/06 06:43:07;;;;;;;0.43;0.43;;;8.70;99.90;;;;;;4418125;32;20429;-65
2021/11/06 06:45:33;;;;;;;0.90;0.50;;;8.80;99.90;;;;;;4415687;32;20077;-65
2021/11/06 06:47:58;;;;;;;0.60;0.60;;;8.80;99.90;;;;;;4417913;32;20463;-66
2021/11/06 06:50:24;;;;;;;0.85;0.55;;;8.80;99.90;;;;;;4414861;32;20085;-65
2021/11/06 06:52:51;;;;;;;2.10;0.70;;;8.90;99.90;;;;;;4410968;32;20074;-65
2021/11/06 06:55:16;;;;;;;0.30;0.30;;;8.90;99.90;;;;;;4419588;32;20559;-65
2021/11/06 06:57:43;;;;;;;0.32;0.30;;;9.00;99.90;;;;;;4414198;32;20057;-65
2021/11/06 07:00:11;;;;;;;0.77;0.77;;;9.00;99.90;;;;;;4407228;32;20069;-65
2021/11/06 07:02:37;;;;;;;0.28;0.28;;;9.00;99.90;;;;;;4401599;32;20066;-64
2021/11/06 07:05:03;;;;;;;0.28;0.28;;;9.10;99.90;;;;;;4421662;32;20069;-64
2021/11/06 07:07:28;;;;;;;0.40;0.40;;;9.10;99.90;;;;;;4423597;32;20125;-64
2021/11/06 07:09:55;;;;;;;1.45;0.88;;;9.10;99.90;;;;;;4417685;32;20077;-64
2021/11/06 07:12:22;;;;;;;0.40;0.40;;;9.20;99.90;;;;;;4415787;32;20058;-64
2021/11/06 07:14:48;;;;;;;0.40;0.40;;;9.20;99.90;;;;;;4411375;32;20089;-64
2021/11/06 07:17:14;;;;;;;0.30;0.30;;;9.20;99.90;;;;;;4409877;32;20116;-64
2021/11/06 07:19:39;;;;;;;4.55;0.68;;;9.20;99.90;;;;;;4423528;32;20486;-64
2021/11/06 07:22:06;;;;;;;16.50;0.88;;;9.20;99.90;;;;;;4419146;32;20496;-64
2021/11/06 07:24:32;;;;;;;0.73;0.73;;;9.30;99.90;;;;;;4420048;32;20097;-64
2021/11/06 07:26:57;;;;;;;0.73;0.73;;;9.30;99.90;;;;;;4404592;32;20232;-65
2021/11/06 07:29:23;;;;;;;0.50;0.50;;;9.30;99.90;;;;;;4409302;32;20061;-64
2021/11/06 07:31:48;;;;;;;0.93;0.80;;;9.30;99.90;;;;;;4425340;32;20086;-64
2021/11/06 07:34:14;;;;;;;0.98;0.73;;;9.40;99.90;;;;;;4416363;32;20081;-64
2021/11/06 07:36:39;;;;;;;0.52;0.50;;;9.40;99.90;;;;;;4403566;32;20385;-64
2021/11/06 07:39:05;;;;;;;0.37;0.37;;;9.40;99.90;;;;;;4427432;32;20432;-65
2021/11/06 07:41:30;;;;;;;0.68;0.50;;;9.50;99.90;;;;;;4425265;32;20078;-65
2021/11/06 07:43:56;;;;;;;3.30;0.65;;;9.40;99.90;;;;;;4418194;32;20070;-65
2021/11/06 07:46:22;;;;;;;0.45;0.45;;;9.50;99.90;;;;;;4417725;32;20557;-64
2021/11/06 07:48:49;;;;;;;0.77;0.77;;;9.40;99.90;;;;;;4407953;32;20132;-65
2021/11/06 07:51:16;;;;;;;0.32;0.32;;;9.50;99.90;;;;;;4404087;32;20109;-65
2021/11/06 07:53:41;;;;;;;4.20;0.85;;;9.50;99.90;;;;;;4410230;32;20112;-65
2021/11/06 07:56:07;;;;;;;2.65;1.52;;;9.50;99.90;;;;;;4409319;32;20065;-65
2021/11/06 07:58:32;;;;;;;0.47;0.47;;;9.40;99.90;;;;;;4420606;32;20497;-65
2021/11/06 08:00:59;;;;;;;2.35;0.60;;;9.50;99.90;;;;;;4420307;32;20295;-65
2021/11/06 08:03:25;;;;;;;0.40;0.40;;;9.50;99.90;;;;;;4424096;32;20090;-65
2021/11/06 08:05:50;;;;;;;0.28;0.28;;;9.40;99.90;;;;;;4417098;32;20072;-65
2021/11/06 08:08:16;;;;;;;2.87;0.65;;;9.40;99.90;;;;;;4420125;32;20125;-65
2021/11/06 08:10:41;;;;;;;0.60;0.60;;;9.50;99.90;;;;;;4406453;32;20073;-65
2021/11/06 08:13:07;;;;;;;2.50;0.95;;;9.50;99.90;;;;;;4423078;32;20061;-65
2021/11/06 08:15:33;;;;;;;0.80;0.52;;;9.50;99.90;;;;;;4410186;32;20468;-64
2021/11/06 08:17:59;;;;;;;0.30;0.30;;;9.50;99.90;;;;;;4421909;32;20094;-64
2021/11/06 08:20:25;;;;;;;0.55;0.55;;;9.60;99.90;;;;;;4406229;32;20065;-64
2021/11/06 08:22:51;;;;;;;12.40;0.60;;;9.60;99.90;;;;;;4408996;32;20124;-64
2021/11/06 08:25:18;;;;;;;0.68;0.60;;;9.60;99.90;;;;;;4413349;32;20081;-65
2021/11/06 08:27:45;;;;;;;0.30;0.30;;;9.50;99.90;;;;;;4402207;32;20085;-64
2021/11/06 08:30:11;;;;;;;0.40;0.40;;;9.50;99.90;;;;;;4422112;32;20124;-64
2021/11/06 08:32:37;;;;;;;0.57;0.55;;;9.60;99.90;;;;;;4421519;32;20062;-64
2021/11/06 08:35:03;;;;;;;0.50;0.50;;;9.70;99.90;;;;;;4401029;32;20208;-65
2021/11/06 08:37:29;;;;;;;0.20;0.20;;;9.80;99.90;;;;;;4422139;32;20078;-64
2021/11/06 08:39:54;;;;;;;0.40;0.40;;;9.80;99.90;;;;;;4427861;32;20386;-64
2021/11/06 08:42:20;;;;;;;0.80;0.50;;;9.80;99.90;;;;;;4428077;32;20522;-64
2021/11/06 08:44:45;;;;;;;4.00;0.68;;;9.80;99.90;;;;;;4425220;32;20115;-65
2021/11/06 08:47:11;;;;;;;0.32;0.32;;;9.90;99.90;;;;;;4423256;32;20412;-65
2021/11/06 08:49:36;;;;;;;0.30;0.30;;;10.00;99.90;;;;;;4423745;32;20065;-64
2021/11/06 08:52:03;;;;;;;0.30;0.30;;;10.00;99.90;;;;;;4427850;32;20094;-64
2021/11/06 08:54:29;;;;;;;0.37;0.37;;;10.10;99.90;;;;;;4413802;32;20069;-64
2021/11/06 08:56:55;;;;;;;2.53;0.75;;;10.10;99.90;;;;;;4426984;32;20140;-64
2021/11/06 08:59:21;;;;;;;0.40;0.40;;;10.10;99.90;;;;;;4411412;32;20680;-64
2021/11/06 09:01:49;;;;;;;0.57;0.57;;;10.20;99.90;;;;;;4427517;32;20093;-64
2021/11/06 09:04:15;;;;;;;0.55;0.55;;;10.30;99.90;;;;;;4427378;32;20069;-64
2021/11/06 09:06:41;;;;;;;0.65;0.55;;;10.30;99.90;;;;;;4426908;32;20115;-64
2021/11/06 09:09:10;;;;;;;0.40;0.40;;;10.30;99.90;;;;;;4427525;32;20077;-64
2021/11/06 09:11:37;;;;;;;0.40;0.40;;;10.20;99.90;;;;;;4418294;32;20089;-64
2021/11/06 09:14:04;;;;;;;0.40;0.40;;;10.30;99.90;;;;;;4417542;32;20130;-64
2021/11/06 09:16:29;;;;;;;0.40;0.40;;;10.20;99.90;;;;;;4416435;32;20089;-64
2021/11/06 09:18:55;;;;;;;1.95;0.98;;;10.20;99.90;;;;;;4416585;32;20061;-65
2021/11/06 09:21:24;;;;;;;0.60;0.60;;;10.20;99.90;;;;;;4417482;32;20082;-64
2021/11/06 09:23:50;;;;;;;0.50;0.50;;;10.20;99.90;;;;;;4397153;32;20073;-64
2021/11/06 09:26:17;;;;;;;0.68;0.68;;;10.30;99.90;;;;;;4426614;32;20105;-64
2021/11/06 09:28:43;;;;;;;0.40;0.40;;;10.40;99.90;;;;;;4426593;32;20085;-64
2021/11/06 09:31:10;;;;;;;0.45;0.45;;;10.40;99.90;;;;;;4412452;32;20091;-64
2021/11/06 09:33:39;;;;;;;0.40;0.40;;;10.50;99.90;;;;;;4421851;32;20143;-64
2021/11/06 09:36:05;;;;;;;0.40;0.40;;;10.40;99.90;;;;;;4405582;32;20061;-64
2021/11/06 09:38:31;;;;;;;0.45;0.45;;;10.40;99.90;;;;;;4423504;32;20551;-64
2021/11/06 09:41:01;;;;;;;0.37;0.37;;;10.40;99.90;;;;;;4408326;32;20081;-64
2021/11/06 09:43:27;;;;;;;2.90;0.75;;;10.40;99.90;;;;;;4408710;32;20085;-64
2021/11/06 09:45:54;;;;;;;0.40;0.40;;;10.50;99.90;;;;;;4412307;32;20114;-65
2021/11/06 09:48:22;;;;;;;0.30;0.30;;;10.50;99.90;;;;;;4413233;32;20403;-64
2021/11/06 09:50:48;;;;;;;0.43;0.43;;;10.70;99.90;;;;;;4425203;32;20069;-64
2021/11/06 09:53:16;;;;;;;0.55;0.55;;;11.00;99.90;;;;;;4412588;32;20148;-64
2021/11/06 09:55:42;;;;;;;0.40;0.40;;;11.20;99.90;;;;;;4425829;32;20504;-64
2021/11/06 09:58:08;;;;;;;2.15;0.93;;;11.30;99.90;;;;;;4398503;32;20081;-64
2021/11/06 10:00:34;;;;;;;0.68;0.68;;;11.30;99.90;;;;;;4410309;32;20062;-64
2021/11/06 10:02:59;;;;;;;0.57;0.57;;;11.20;99.90;;;;;;4414424;32;20061;-65
2021/11/06 10:05:53;;;;;;;0.32;0.32;;;11.20;99.90;;;;;;4417949;32;20131;-64
2021/11/06 10:08:21;;;;;;;0.50;0.50;;;11.20;99.90;;;;;;4399061;32;20372;-64
2021/11/06 10:10:48;;;;;;;0.52;0.52;;;11.40;99.90;;;;;;4406634;32;20127;-65
2021/11/06 10:13:15;;;;;;;0.52;0.52;;;11.40;99.90;;;;;;4421036;32;20070;-64
2021/11/06 10:15:44;;;;;;;0.77;0.77;;;11.50;99.90;;;;;;4416963;32;20073;-64
2021/11/06 10:18:16;;;;;;;0.40;0.40;;;11.50;99.90;;;;;;4421066;32;20078;-65
2021/11/06 10:20:42;;;;;;;0.52;0.52;;;11.60;99.90;;;;;;4418550;32;20096;-64
2021/11/06 10:23:07;;;;;;;1.15;1.05;;;11.80;99.90;;;;;;4423128;32;20131;-64
2021/11/06 10:25:36;;;;;;;0.47;0.47;;;11.80;99.90;;;;;;4395635;32;20069;-64
2021/11/06 10:28:05;;;;;;;0.30;0.30;;;11.90;99.90;;;;;;4423654;32;20069;-64
2021/11/06 10:30:35;;;;;;;17.98;0.80;;;12.10;99.90;;;;;;4427180;32;20204;-65
2021/11/06 10:33:03;;;;;;;0.30;0.30;;;12.20;99.90;;;;;;4423426;32;20566;-64
2021/11/06 10:35:33;;;;;;;0.40;0.40;;;12.10;99.90;;;;;;4423365;32;20139;-64
2021/11/06 10:38:04;;;;;;;0.77;0.65;;;11.90;99.90;;;;;;4410012;32;20085;-64
2021/11/06 10:40:32;;;;;;;0.75;0.75;;;12.10;99.90;;;;;;4426850;32;20123;-64
2021/11/06 10:43:02;;;;;;;0.43;0.43;;;12.30;99.90;;;;;;4413835;32;20440;-64
2021/11/06 10:45:32;;;;;;;0.40;0.40;;;12.30;99.90;;;;;;4396118;32;20392;-64
2021/11/06 10:48:01;;;;;;;1.33;0.60;;;12.20;99.90;;;;;;4420759;32;20564;-64
2021/11/06 10:50:48;;;;;;;0.30;0.30;;;12.00;99.90;;;;;;4421174;32;20062;-64
2021/11/06 10:53:37;;;;;;;0.50;0.50;;;12.10;99.90;;;;;;4413968;32;20069;-64
2021/11/06 10:56:07;;;;;;;1.12;1.00;;;12.20;99.90;;;;;;4385674;32;20496;-64
2021/11/06 10:58:35;;;;;;;0.40;0.40;;;12.10;99.90;;;;;;4422761;32;20058;-64
2021/11/06 11:01:04;;;;;;;0.57;0.55;;;11.90;99.90;;;;;;4413363;32;20124;-64
2021/11/06 11:03:34;;;;;;;0.40;0.40;;;11.80;99.90;;;;;;4412085;32;20081;-64
2021/11/06 11:06:05;;;;;;;0.68;0.68;;;11.70;99.90;;;;;;4411992;32;20122;-64
2021/11/06 11:08:30;;;;;;;;;;;11.50;99.90;;;;;;4423803;32;20073;-65
2021/11/06 11:11:11;;;;;;;0.40;0.40;;;11.50;99.90;;;;;;4423457;32;19945;-64
2021/11/06 11:14:00;;;;;;;0.65;0.65;;;11.30;99.90;;;;;;4401772;32;20888;-64
2021/11/06 11:16:26;;;;;;;2.12;1.20;;;11.20;99.90;;;;;;4416681;32;20053;-64
2021/11/06 11:18:54;;;;;;;0.70;0.70;;;11.10;99.90;;;;;;4430134;32;20177;-65
2021/11/06 11:21:25;;;;;;;0.70;0.70;;;11.10;99.90;;;;;;4412875;32;20081;-64
2021/11/06 11:23:53;;;;;;;1.33;0.50;;;11.20;99.90;;;;;;4429443;32;20065;-64
2021/11/06 11:26:25;;;;;;;0.52;0.52;;;11.20;99.90;;;;;;4411728;32;20151;-64
2021/11/06 11:28:53;;;;;;;0.70;0.70;;;11.20;99.90;;;;;;4420892;32;20421;-64
2021/11/06 11:31:20;;;;;;;0.50;0.50;;;11.10;99.90;;;;;;4412437;32;20077;-64
2021/11/06 11:33:46;;;;;;;0.50;0.50;;;11.10;99.90;;;;;;4429060;32;20521;-64
2021/11/06 11:36:15;;;;;;;0.40;0.40;;;11.10;99.90;;;;;;4428971;32;20068;-65
2021/11/06 11:38:41;;;;;;;0.43;0.43;;;11.20;99.90;;;;;;4425016;32;20189;-64
2021/11/06 11:41:35;;;;;;;0.30;0.30;;;11.20;99.90;;;;;;4428482;32;20065;-64
2021/11/06 11:44:41;;;;;;;0.50;0.50;;;11.10;99.90;;;;;;4398698;32;20073;-64
2021/11/06 11:47:29;;;;;;;0.40;0.40;;;11.10;99.90;;;;;;4403953;32;20093;-64
2021/11/06 11:49:57;;;;;;;0.47;0.47;;;11.20;99.90;;;;;;4399291;32;20124;-64
2021/11/06 11:52:27;;;;;;;0.50;0.50;;;11.20;99.90;;;;;;4428593;32;20121;-64
2021/11/06 11:54:55;;;;;;;0.60;0.60;;;11.40;99.90;;;;;;4428480;32;20101;-64
2021/11/06 11:57:21;;;;;;;1.10;0.95;;;11.40;99.90;;;;;;4427494;32;20065;-64
2021/11/06 11:59:46;;;;;;;0.43;0.43;;;11.40;99.90;;;;;;4428677;32;20510;-64
2021/11/06 12:02:29;;;;;;;2.00;0.60;;;11.40;99.90;;;;;;4427190;32;20070;-64
2021/11/06 12:05:17;;;;;;;0.60;0.60;;;11.50;99.90;;;;;;4423566;32;20065;-64
2021/11/06 12:07:46;;;;;;;0.40;0.40;;;11.50;99.90;;;;;;4392443;32;20062;-64
2021/11/06 12:10:30;;;;;;;0.55;0.55;;;11.50;99.90;;;;;;4428848;32;20093;-64
2021/11/06 12:12:57;;;;;;;9.80;1.48;;;11.60;99.90;;;;;;4423294;32;20058;-64
2021/11/06 12:15:53;;;;;;;0.43;0.43;;;11.60;99.90;;;;;;4428028;32;20068;-63
2021/11/06 12:18:36;;;;;;;0.75;0.50;;;11.60;99.90;;;;;;4396936;32;20543;-64
2021/11/06 12:21:16;;;;;;;0.30;0.30;;;11.60;99.90;;;;;;4421018;32;20065;-64
2021/11/06 12:23:43;;;;;;;0.40;0.40;;;11.60;99.90;;;;;;4427781;32;20871;-64
2021/11/06 12:26:27;;;;;;;0.50;0.50;;;11.50;99.90;;;;;;4410853;32;20127;-64
2021/11/06 12:29:14;;;;;;;0.40;0.40;;;11.50;99.90;;;;;;4403510;32;20101;-64
2021/11/06 12:31:45;;;;;;;1.48;0.50;;;11.60;99.90;;;;;;4414834;32;20065;-64
2021/11/06 12:34:33;;;;;;;0.40;0.40;;;11.60;99.90;;;;;;4401511;32;20097;-65
2021/11/06 12:36:59;;;;;;;0.50;0.50;;;11.60;99.90;;;;;;4424763;32;20582;-64
2021/11/06 12:39:46;;;;;;;0.40;0.40;;;11.60;99.90;;;;;;4428222;32;20084;-64
2021/11/06 12:42:16;;;;;;;0.50;0.50;;;11.60;99.90;;;;;;4402246;32;20074;-65
2021/11/06 12:44:56;;;;;;;2.67;0.88;;;11.70;99.90;;;;;;4425202;32;20073;-65
2021/11/06 12:47:23;;;;;;;0.50;0.50;;;11.70;99.90;;;;;;4406968;32;20089;-65
2021/11/06 12:49:51;;;;;;;0.55;0.55;;;11.70;99.90;;;;;;4422622;32;20089;-65
2021/11/06 12:52:19;;;;;;;0.60;0.60;;;11.70;99.90;;;;;;4414289;32;20116;-64
2021/11/06 12:54:48;;;;;;;1.75;1.10;;;11.70;99.90;;;;;;4412009;32;20057;-64